createdAt,value
2023-04-30T00:02:41.555Z,8.68
2023-04-30T00:07:41.434Z,9.01
2023-04-30T00:12:34.921Z,9.67
2023-04-30T00:23:06.062Z,8.19
2023-04-30T00:27:59.611Z,9.13
2023-04-30T00:32:57.349Z,9.65
2023-04-30T00:37:50.736Z,8.64
2023-04-30T00:42:44.179Z,8.30
2023-04-30T00:47:37.836Z,8.38
2023-04-30T00:52:39.577Z,9.73
2023-04-30T00:57:57.020Z,8.30
2023-04-30T01:03:04.001Z,8.54
2023-04-30T01:08:19.750Z,9.32
2023-04-30T01:13:22.005Z,9.45
2023-04-30T01:18:20.053Z,8.86
2023-04-30T01:23:45.282Z,9.49
2023-04-30T01:28:50.540Z,9.01
2023-04-30T01:33:49.931Z,8.47
2023-04-30T01:38:57.737Z,8.51
2023-04-30T01:44:02.789Z,8.98
2023-04-30T01:49:10.510Z,9.23
2023-04-30T01:54:11.118Z,8.32
2023-04-30T01:59:06.450Z,8.46
2023-04-30T02:04:00.224Z,8.17
2023-04-30T02:08:53.862Z,8.64
2023-04-30T02:13:50.250Z,8.85
2023-04-30T02:18:46.612Z,8.73
2023-04-30T02:23:40.274Z,8.41
2023-04-30T02:28:34.644Z,7.29
2023-04-30T02:33:27.978Z,7.89
2023-04-30T02:38:23.042Z,7.31
2023-04-30T02:43:19.582Z,7.83
2023-04-30T02:48:27.436Z,8.11
2023-04-30T02:53:25.342Z,8.15
2023-04-30T02:58:19.259Z,7.71
2023-04-30T03:03:24.466Z,7.38
2023-04-30T03:08:46.912Z,7.11
2023-04-30T03:14:15.386Z,6.97
2023-04-30T03:19:26.875Z,7.26
2023-04-30T03:24:27.243Z,8.02
2023-04-30T03:29:22.674Z,8.31
2023-04-30T03:35:07.877Z,8.23
2023-04-30T03:40:21.461Z,7.12
2023-04-30T03:45:18.556Z,8.05
2023-04-30T03:50:13.260Z,7.30
2023-04-30T03:55:08.449Z,7.42
2023-04-30T04:00:02.294Z,8.05
2023-04-30T04:05:08.457Z,7.70
2023-04-30T04:10:11.218Z,8.03
2023-04-30T04:15:07.157Z,8.04
2023-04-30T04:20:06.242Z,8.07
2023-04-30T04:25:02.997Z,8.07
2023-04-30T04:29:58.393Z,8.85
2023-04-30T04:34:58.661Z,8.16
2023-04-30T04:39:55.361Z,8.58
2023-04-30T04:44:53.417Z,8.76
2023-04-30T04:49:46.703Z,8.45
2023-04-30T04:54:40.416Z,9.55
2023-04-30T04:59:33.929Z,9.20
2023-04-30T05:04:32.220Z,10.08
2023-04-30T05:09:28.413Z,9.82
2023-04-30T05:14:22.408Z,9.98
2023-04-30T05:19:16.211Z,10.53
2023-04-30T05:24:10.991Z,11.56
2023-04-30T05:29:04.422Z,11.82
2023-04-30T05:33:57.994Z,11.07
2023-04-30T05:38:51.850Z,12.11
2023-04-30T05:43:49.962Z,12.76
2023-04-30T05:48:43.356Z,13.36
2023-04-30T05:53:36.550Z,13.05
2023-04-30T05:58:29.664Z,14.30
2023-04-30T06:03:24.151Z,14.40
2023-04-30T06:08:17.432Z,14.69
2023-04-30T06:13:11.776Z,14.72
2023-04-30T06:18:05.222Z,14.91
2023-04-30T06:23:00.233Z,15.11
2023-04-30T06:27:54.254Z,15.20
2023-04-30T06:32:50.556Z,15.10
2023-04-30T06:37:43.846Z,14.67
2023-04-30T06:42:38.748Z,15.45
2023-04-30T06:47:38.471Z,15.57
2023-04-30T06:52:32.175Z,15.26
2023-04-30T06:57:25.900Z,15.37
2023-04-30T07:02:22.056Z,15.43
2023-04-30T07:07:15.548Z,15.29
2023-04-30T07:12:08.934Z,15.41
2023-04-30T07:17:02.006Z,15.38
2023-04-30T07:21:56.748Z,15.51
2023-04-30T07:26:50.116Z,15.97
2023-04-30T07:31:43.269Z,16.08
2023-04-30T07:36:38.707Z,16.48
2023-04-30T07:41:33.605Z,16.78
2023-04-30T07:46:27.002Z,17.12
2023-04-30T07:51:20.308Z,17.10
2023-04-30T07:56:13.777Z,17.28
2023-04-30T08:01:08.497Z,17.55
2023-04-30T08:06:12.093Z,17.89
2023-04-30T08:11:05.351Z,18.03
2023-04-30T08:15:58.612Z,18.28
2023-04-30T08:20:55.976Z,18.91
2023-04-30T08:25:49.154Z,19.03
2023-04-30T08:30:44.838Z,20.43
2023-04-30T08:35:38.157Z,21.48
2023-04-30T08:40:50.477Z,22.37
2023-04-30T08:45:44.733Z,23.15
2023-04-30T08:50:40.109Z,24.12
2023-04-30T08:55:35.718Z,24.73
2023-04-30T09:00:29.172Z,25.14
2023-04-30T09:05:22.736Z,25.22
2023-04-30T09:10:16.926Z,25.47
2023-04-30T09:15:13.151Z,25.26
2023-04-30T09:20:11.262Z,25.66
2023-04-30T09:25:05.266Z,25.87
2023-04-30T09:29:58.666Z,24.80
2023-04-30T09:34:53.305Z,24.64
2023-04-30T09:39:51.810Z,24.10
2023-04-30T09:44:45.187Z,23.40
2023-04-30T09:49:41.949Z,23.24
2023-04-30T09:54:37.799Z,22.71
2023-04-30T09:59:32.298Z,22.66
2023-04-30T10:04:26.300Z,22.56
2023-04-30T10:09:30.023Z,22.96
2023-04-30T10:14:34.485Z,23.20
2023-04-30T10:19:33.181Z,24.06
2023-04-30T10:24:26.718Z,23.70
2023-04-30T10:35:28.003Z,24.19
2023-04-30T10:40:26.743Z,25.24
2023-04-30T10:45:52.816Z,25.67
2023-04-30T10:51:13.036Z,25.90
2023-04-30T10:56:09.266Z,26.92
2023-04-30T11:01:08.974Z,27.25
2023-04-30T11:06:04.062Z,28.51
2023-04-30T11:11:01.935Z,28.72
2023-04-30T11:15:55.572Z,29.60
2023-04-30T11:21:16.354Z,29.75
2023-04-30T11:26:12.268Z,29.98
2023-04-30T11:31:06.165Z,29.81
2023-04-30T11:36:02.133Z,30.64
2023-04-30T11:40:58.134Z,30.69
2023-04-30T11:46:08.911Z,31.71
2023-04-30T11:51:05.758Z,32.56
2023-04-30T11:56:04.163Z,32.92
2023-04-30T12:01:03.688Z,33.00
2023-04-30T12:05:56.912Z,33.15
2023-04-30T12:10:55.216Z,32.91
2023-04-30T12:16:03.460Z,32.58
2023-04-30T12:20:56.929Z,32.71
2023-04-30T12:25:53.358Z,32.90
2023-04-30T12:30:54.520Z,32.93
2023-04-30T12:35:54.476Z,33.34
2023-04-30T12:40:49.497Z,32.90
2023-04-30T12:45:52.153Z,32.19
2023-04-30T12:50:50.580Z,33.20
2023-04-30T12:55:47.204Z,32.93
2023-04-30T13:00:49.047Z,33.50
2023-04-30T13:05:42.975Z,34.08
2023-04-30T13:10:38.309Z,34.17
2023-04-30T13:15:33.046Z,34.35
2023-04-30T13:20:26.620Z,34.01
2023-04-30T13:25:20.000Z,33.89
2023-04-30T13:30:13.761Z,33.98
2023-04-30T13:35:10.374Z,34.40
2023-04-30T13:40:04.266Z,33.47
2023-04-30T13:45:00.230Z,33.15
2023-04-30T13:50:01.513Z,33.74
2023-04-30T13:54:57.440Z,33.05
2023-04-30T14:00:02.475Z,33.44
2023-04-30T14:05:06.426Z,33.22
2023-04-30T14:10:01.545Z,32.93
2023-04-30T14:14:55.660Z,33.11
2023-04-30T14:19:49.149Z,33.17
2023-04-30T14:24:42.572Z,33.14
2023-04-30T14:29:37.387Z,33.03
2023-04-30T14:34:30.802Z,33.09
2023-04-30T14:39:24.008Z,32.90
2023-04-30T14:44:17.425Z,32.58
2023-04-30T14:49:12.469Z,31.81
2023-04-30T14:54:05.876Z,30.01
2023-04-30T14:59:02.737Z,28.00
2023-04-30T15:03:55.972Z,26.32
2023-04-30T15:08:52.899Z,25.88
2023-04-30T15:13:48.213Z,25.15
2023-04-30T15:18:41.597Z,24.59
2023-04-30T15:23:35.810Z,23.93
2023-04-30T15:28:33.785Z,23.82
2023-04-30T15:33:31.245Z,23.16
2023-04-30T15:38:24.758Z,23.27
2023-04-30T15:43:19.878Z,22.36
2023-04-30T15:48:25.685Z,22.82
2023-04-30T15:53:19.179Z,22.47
2023-04-30T15:58:13.239Z,22.47
2023-04-30T16:03:06.918Z,22.37
2023-04-30T16:08:01.786Z,22.29
2023-04-30T16:12:54.954Z,22.16
2023-04-30T16:17:48.255Z,21.57
2023-04-30T16:22:41.398Z,21.85
2023-04-30T16:27:37.515Z,21.68
2023-04-30T16:32:31.573Z,21.53
2023-04-30T16:37:24.850Z,21.33
2023-04-30T16:42:21.102Z,21.06
2023-04-30T16:47:17.366Z,20.57
2023-04-30T16:52:14.029Z,20.29
2023-04-30T16:57:09.614Z,19.35
2023-04-30T17:02:06.695Z,19.48
2023-04-30T17:07:02.605Z,19.37
2023-04-30T17:12:00.914Z,20.00
2023-04-30T17:16:54.272Z,20.22
2023-04-30T17:21:53.599Z,19.04
2023-04-30T17:26:51.539Z,18.83
2023-04-30T17:31:47.547Z,20.04
2023-04-30T17:36:44.757Z,18.67
2023-04-30T17:41:51.766Z,19.03
2023-04-30T17:52:55.879Z,18.61
2023-04-30T17:57:54.392Z,18.87
2023-04-30T18:02:51.888Z,19.58
2023-04-30T18:08:14.497Z,19.50
2023-04-30T18:13:12.761Z,18.06
2023-04-30T18:18:11.080Z,18.80
2023-04-30T18:23:08.436Z,19.29
2023-04-30T18:28:03.925Z,18.30
2023-04-30T18:32:58.384Z,18.24
2023-04-30T18:43:25.837Z,17.98
2023-04-30T18:48:52.702Z,18.18
2023-04-30T18:54:02.109Z,17.88
2023-04-30T18:59:01.614Z,18.71
2023-04-30T19:04:00.074Z,18.80
2023-04-30T19:09:01.773Z,17.87
2023-04-30T19:13:59.863Z,18.91
2023-04-30T19:18:53.537Z,17.91
2023-04-30T19:23:47.150Z,18.23
2023-04-30T19:28:42.114Z,18.35
2023-04-30T19:33:39.489Z,18.17
2023-04-30T19:38:32.974Z,18.59
2023-04-30T19:43:26.909Z,18.36
2023-04-30T19:48:57.414Z,18.60
2023-04-30T19:53:52.264Z,18.33
2023-04-30T19:58:49.021Z,18.12
2023-04-30T20:03:54.546Z,17.77
2023-04-30T20:09:26.619Z,16.64
2023-04-30T20:14:26.394Z,17.44
2023-04-30T20:27:11.271Z,17.14
2023-04-30T20:32:12.627Z,17.03
2023-04-30T20:37:11.440Z,16.64
2023-04-30T20:42:19.291Z,16.98
2023-04-30T20:47:25.971Z,15.73
2023-04-30T20:52:25.992Z,15.50
2023-04-30T20:57:19.497Z,15.52
2023-04-30T21:02:12.891Z,16.69
2023-04-30T21:07:07.946Z,16.66
2023-04-30T21:12:01.499Z,16.57
2023-04-30T21:16:54.724Z,16.39
2023-04-30T21:21:47.903Z,16.65
2023-04-30T21:26:45.408Z,16.64
2023-04-30T21:31:38.642Z,16.33
2023-04-30T21:36:35.536Z,15.94
2023-04-30T21:41:30.394Z,15.50
2023-04-30T21:46:25.661Z,15.61
2023-04-30T21:51:19.029Z,16.21
2023-04-30T21:56:13.155Z,16.16
2023-04-30T22:01:06.815Z,16.53
2023-04-30T22:06:02.035Z,16.15
2023-04-30T22:10:59.048Z,15.86
2023-04-30T22:15:52.706Z,15.33
2023-04-30T22:20:46.067Z,15.35
2023-04-30T22:25:40.872Z,15.17
2023-04-30T22:30:34.403Z,14.85
2023-04-30T22:35:28.907Z,15.60
2023-04-30T22:40:23.533Z,15.47
2023-04-30T22:45:18.615Z,15.95
2023-04-30T22:50:12.048Z,15.94
2023-04-30T22:55:06.894Z,14.87
2023-04-30T23:00:00.583Z,15.14
2023-04-30T23:04:55.550Z,15.20
2023-04-30T23:09:51.388Z,15.86
2023-04-30T23:14:46.801Z,14.80
2023-04-30T23:19:40.178Z,15.79
2023-04-30T23:24:37.555Z,15.59
2023-04-30T23:29:30.823Z,15.97
2023-04-30T23:34:27.472Z,14.69
2023-04-30T23:39:35.544Z,14.61
2023-04-30T23:44:32.319Z,14.64
2023-04-30T23:49:28.330Z,15.00
2023-04-30T23:54:22.494Z,15.12
2023-04-30T23:59:16.275Z,15.26
